createdAt,value
2022-09-16T00:01:42.315Z,80.66
2022-09-16T00:04:29.903Z,81.57
2022-09-16T00:07:17.598Z,81.97
2022-09-16T00:10:05.765Z,81.96
2022-09-16T00:12:55.559Z,82.57
2022-09-16T00:15:45.048Z,82.63
2022-09-16T00:18:32.529Z,83.14
2022-09-16T00:21:19.903Z,83.78
2022-09-16T00:24:07.854Z,83.69
2022-09-16T00:26:55.637Z,83.62
2022-09-16T00:29:44.498Z,84.12
2022-09-16T00:32:32.332Z,83.99
2022-09-16T00:35:19.940Z,82.83
2022-09-16T00:38:07.748Z,83.44
2022-09-16T00:40:54.898Z,83.69
2022-09-16T00:43:54.503Z,83.39
2022-09-16T00:46:47.128Z,84.03
2022-09-16T00:49:34.924Z,84.08
2022-09-16T00:52:22.018Z,84.00
2022-09-16T00:55:12.003Z,82.94
2022-09-16T00:58:06.221Z,84.35
2022-09-16T01:00:53.804Z,83.64
2022-09-16T01:03:48.064Z,83.93
2022-09-16T01:06:39.831Z,84.57
2022-09-16T01:09:28.288Z,84.58
2022-09-16T01:12:15.691Z,84.88
2022-09-16T01:15:04.078Z,85.55
2022-09-16T01:18:02.064Z,85.25
2022-09-16T01:21:38.796Z,85.22
2022-09-16T01:24:43.056Z,85.62
2022-09-16T01:27:58.646Z,85.67
2022-09-16T01:31:02.027Z,85.57
2022-09-16T01:34:01.030Z,85.05
2022-09-16T01:36:59.164Z,84.99
2022-09-16T01:39:52.134Z,85.53
2022-09-16T01:42:48.089Z,85.14
2022-09-16T01:45:41.084Z,85.13
2022-09-16T01:48:38.834Z,85.00
2022-09-16T01:51:32.981Z,85.42
2022-09-16T01:54:28.266Z,84.78
2022-09-16T01:57:20.132Z,84.88
2022-09-16T02:00:12.008Z,84.83
2022-09-16T02:03:03.397Z,85.04
2022-09-16T02:05:56.563Z,85.33
2022-09-16T02:08:49.133Z,85.51
2022-09-16T02:11:38.683Z,85.43
2022-09-16T02:14:31.458Z,85.32
2022-09-16T02:17:22.717Z,84.88
2022-09-16T02:20:14.631Z,84.86
2022-09-16T02:23:08.048Z,85.23
2022-09-16T02:25:56.815Z,85.94
2022-09-16T02:28:49.200Z,85.95
2022-09-16T02:31:38.830Z,86.54
2022-09-16T02:34:31.951Z,86.65
2022-09-16T02:37:22.782Z,86.53
2022-09-16T02:40:16.637Z,86.05
2022-09-16T02:43:04.591Z,86.15
2022-09-16T02:46:01.069Z,86.78
2022-09-16T02:48:57.319Z,86.94
2022-09-16T02:51:56.359Z,86.60
2022-09-16T02:54:51.275Z,87.07
2022-09-16T02:57:40.019Z,86.95
2022-09-16T03:00:29.810Z,87.21
2022-09-16T03:03:17.776Z,86.65
2022-09-16T03:06:15.853Z,87.16
2022-09-16T03:09:05.816Z,86.75
2022-09-16T03:12:17.519Z,86.50
2022-09-16T03:15:36.522Z,87.17
2022-09-16T03:18:52.949Z,86.90
2022-09-16T03:21:48.918Z,86.72
2022-09-16T03:24:49.691Z,87.82
2022-09-16T03:27:44.099Z,87.02
2022-09-16T03:30:39.255Z,87.53
2022-09-16T03:33:33.785Z,87.01
2022-09-16T03:36:24.555Z,86.70
2022-09-16T03:39:13.297Z,86.96
2022-09-16T03:42:02.730Z,87.14
2022-09-16T03:44:50.655Z,86.65
2022-09-16T03:47:39.015Z,87.30
2022-09-16T03:50:26.511Z,87.65
2022-09-16T03:53:14.194Z,87.69
2022-09-16T03:56:01.507Z,87.91
2022-09-16T03:58:49.090Z,87.61
2022-09-16T04:01:36.664Z,87.20
2022-09-16T04:04:25.655Z,86.63
2022-09-16T04:07:12.952Z,87.38
2022-09-16T04:10:01.233Z,86.35
2022-09-16T04:12:48.197Z,86.41
2022-09-16T04:15:39.211Z,87.60
2022-09-16T04:18:27.097Z,90.05
2022-09-16T04:21:16.073Z,90.91
2022-09-16T04:24:03.770Z,90.98
2022-09-16T04:26:51.069Z,90.87
2022-09-16T04:29:38.424Z,89.93
2022-09-16T04:32:25.866Z,90.17
2022-09-16T04:35:13.124Z,90.49
2022-09-16T04:38:02.403Z,90.65
2022-09-16T04:40:49.816Z,90.97
2022-09-16T04:43:37.311Z,91.21
2022-09-16T04:46:24.737Z,90.61
2022-09-16T04:49:13.577Z,90.99
2022-09-16T04:52:01.029Z,91.49
2022-09-16T04:54:49.679Z,91.46
2022-09-16T04:57:37.678Z,91.66
2022-09-16T05:00:26.047Z,91.18
2022-09-16T05:03:13.730Z,91.35
2022-09-16T05:06:09.401Z,91.38
2022-09-16T05:08:57.806Z,90.63
2022-09-16T05:11:46.705Z,91.43
2022-09-16T05:14:33.968Z,91.08
2022-09-16T05:17:46.527Z,91.25
2022-09-16T05:20:28.724Z,91.03
2022-09-16T05:23:15.597Z,90.83
2022-09-16T05:26:06.441Z,90.91
2022-09-16T05:28:55.642Z,90.11
2022-09-16T05:31:44.559Z,90.46
2022-09-16T05:34:32.231Z,89.02
2022-09-16T05:37:19.561Z,89.20
2022-09-16T05:40:08.454Z,90.36
2022-09-16T05:42:56.387Z,89.00
2022-09-16T05:45:45.248Z,89.48
2022-09-16T05:48:33.435Z,89.28
2022-09-16T05:51:21.890Z,89.65
2022-09-16T05:54:09.588Z,89.86
2022-09-16T05:56:56.481Z,89.38
2022-09-16T05:59:43.553Z,89.33
2022-09-16T06:02:32.132Z,89.78
2022-09-16T06:05:19.983Z,89.82
2022-09-16T06:08:07.085Z,89.30
2022-09-16T06:10:54.401Z,89.25
2022-09-16T06:13:41.686Z,89.78
2022-09-16T06:16:33.061Z,90.00
2022-09-16T06:19:22.789Z,90.22
2022-09-16T06:22:10.122Z,88.95
2022-09-16T06:24:57.276Z,89.69
2022-09-16T06:27:45.005Z,90.40
2022-09-16T06:30:32.290Z,90.46
2022-09-16T06:33:19.556Z,89.42
2022-09-16T06:36:09.722Z,87.95
2022-09-16T06:38:57.095Z,88.55
2022-09-16T06:41:44.932Z,88.99
2022-09-16T06:44:32.479Z,87.99
2022-09-16T06:47:19.883Z,88.36
2022-09-16T06:50:07.669Z,87.20
2022-09-16T06:52:55.999Z,85.18
2022-09-16T06:55:42.766Z,85.00
2022-09-16T06:58:32.542Z,85.58
2022-09-16T07:01:21.599Z,86.54
2022-09-16T07:04:13.409Z,87.25
2022-09-16T07:07:16.051Z,87.39
2022-09-16T07:10:05.328Z,87.43
2022-09-16T07:12:52.855Z,86.05
2022-09-16T07:16:02.350Z,84.29
2022-09-16T07:18:48.549Z,82.11
2022-09-16T07:21:36.345Z,79.66
2022-09-16T07:24:23.424Z,78.30
2022-09-16T07:27:12.501Z,77.05
2022-09-16T07:30:00.567Z,76.48
2022-09-16T07:32:47.858Z,76.27
2022-09-16T07:35:35.431Z,75.51
2022-09-16T07:38:22.705Z,74.80
2022-09-16T07:41:12.044Z,75.02
2022-09-16T07:44:02.114Z,73.89
2022-09-16T07:46:51.504Z,72.53
2022-09-16T07:49:39.159Z,73.27
2022-09-16T07:52:29.344Z,72.38
2022-09-16T07:55:17.606Z,72.84
2022-09-16T07:58:05.273Z,73.67
2022-09-16T08:00:53.990Z,75.49
2022-09-16T08:03:42.056Z,74.41
2022-09-16T08:06:31.212Z,72.69
2022-09-16T08:12:26.050Z,72.12
2022-09-16T08:15:13.424Z,72.21
2022-09-16T08:18:02.350Z,69.85
2022-09-16T08:20:49.986Z,69.29
2022-09-16T08:23:38.466Z,68.46
2022-09-16T08:26:26.769Z,66.62
2022-09-16T08:29:14.334Z,66.81
2022-09-16T08:32:02.385Z,65.25
2022-09-16T08:34:51.242Z,65.86
2022-09-16T08:37:38.715Z,64.39
2022-09-16T08:40:27.106Z,64.58
2022-09-16T08:43:21.730Z,63.48
2022-09-16T08:46:18.802Z,62.59
2022-09-16T08:49:17.735Z,61.92
2022-09-16T08:52:14.285Z,63.90
2022-09-16T08:55:04.951Z,61.96
2022-09-16T08:57:58.026Z,62.33
2022-09-16T09:00:48.245Z,59.16
2022-09-16T09:03:39.505Z,60.34
2022-09-16T09:06:45.986Z,59.76
2022-09-16T09:09:52.152Z,59.85
2022-09-16T09:12:42.555Z,57.20
2022-09-16T09:15:42.037Z,58.19
2022-09-16T09:18:41.195Z,58.16
2022-09-16T09:21:39.444Z,56.97
2022-09-16T09:24:38.672Z,56.15
2022-09-16T09:27:32.645Z,53.50
2022-09-16T09:30:22.902Z,54.55
2022-09-16T09:33:45.417Z,55.12
2022-09-16T09:36:46.095Z,54.29
2022-09-16T09:39:45.506Z,53.73
2022-09-16T09:42:39.351Z,54.97
2022-09-16T09:45:31.369Z,54.53
2022-09-16T09:48:23.473Z,53.43
2022-09-16T09:51:18.303Z,51.07
2022-09-16T09:54:19.593Z,53.58
2022-09-16T09:57:18.521Z,51.68
2022-09-16T10:00:14.469Z,51.93
2022-09-16T10:03:08.480Z,51.36
2022-09-16T10:05:55.555Z,49.95
2022-09-16T10:08:47.760Z,50.62
2022-09-16T10:11:35.114Z,50.22
2022-09-16T10:14:31.009Z,49.04
2022-09-16T10:17:21.098Z,51.55
2022-09-16T10:20:30.709Z,53.34
2022-09-16T10:23:29.611Z,52.72
2022-09-16T10:26:22.398Z,53.02
2022-09-16T10:29:18.080Z,54.59
2022-09-16T10:32:10.285Z,52.08
2022-09-16T10:34:58.951Z,50.71
2022-09-16T10:37:52.331Z,50.64
2022-09-16T10:40:40.258Z,48.29
2022-09-16T10:43:29.822Z,46.83
2022-09-16T10:46:18.991Z,47.40
2022-09-16T10:49:11.919Z,48.01
2022-09-16T10:52:11.310Z,48.73
2022-09-16T10:54:58.891Z,47.59
2022-09-16T10:57:46.785Z,47.60
2022-09-16T11:00:45.611Z,47.14
2022-09-16T11:04:23.881Z,48.52
2022-09-16T11:07:25.719Z,48.33
2022-09-16T11:10:25.020Z,48.41
2022-09-16T11:13:30.018Z,46.33
2022-09-16T11:16:31.610Z,47.58
2022-09-16T11:19:28.574Z,48.07
2022-09-16T11:22:24.849Z,48.45
2022-09-16T11:25:34.463Z,46.21
2022-09-16T11:28:47.193Z,45.97
2022-09-16T11:31:49.289Z,45.89
2022-09-16T11:34:57.205Z,47.19
2022-09-16T11:37:54.446Z,46.67
2022-09-16T11:40:48.840Z,46.97
2022-09-16T11:43:58.900Z,46.12
2022-09-16T11:47:01.201Z,46.08
2022-09-16T11:50:05.405Z,47.07
2022-09-16T11:53:24.834Z,45.96
2022-09-16T11:56:18.662Z,44.98
2022-09-16T11:59:15.679Z,45.26
2022-09-16T12:02:14.978Z,44.82
2022-09-16T12:05:13.175Z,46.58
2022-09-16T12:08:11.820Z,46.45
2022-09-16T12:11:03.761Z,50.56
2022-09-16T12:14:05.341Z,58.15
2022-09-16T12:16:58.278Z,54.93
2022-09-16T12:19:52.958Z,52.10
2022-09-16T12:22:44.373Z,52.04
2022-09-16T12:25:43.126Z,53.35
2022-09-16T12:28:41.665Z,56.08
2022-09-16T12:31:36.186Z,62.14
2022-09-16T12:34:26.860Z,62.48
2022-09-16T12:37:29.419Z,63.20
2022-09-16T12:40:23.783Z,59.75
2022-09-16T12:43:53.792Z,57.51
2022-09-16T12:47:15.750Z,57.25
2022-09-16T12:50:29.832Z,56.87
2022-09-16T12:53:55.911Z,57.01
2022-09-16T12:57:10.992Z,58.21
2022-09-16T13:00:13.621Z,58.54
2022-09-16T13:03:11.784Z,58.09
2022-09-16T13:06:06.049Z,58.10
2022-09-16T13:08:54.310Z,58.99
2022-09-16T13:14:54.167Z,56.64
2022-09-16T13:17:41.906Z,55.92
2022-09-16T13:20:34.245Z,55.74
2022-09-16T13:23:24.324Z,54.80
2022-09-16T13:26:12.224Z,54.73
2022-09-16T13:28:59.899Z,54.97
2022-09-16T13:31:49.435Z,54.35
2022-09-16T13:34:37.191Z,55.54
2022-09-16T13:37:27.625Z,55.72
2022-09-16T13:40:20.074Z,54.20
2022-09-16T13:43:15.061Z,53.91
2022-09-16T13:46:05.331Z,54.41
2022-09-16T13:48:57.082Z,53.75
2022-09-16T13:51:46.255Z,53.58
2022-09-16T13:55:06.315Z,52.62
2022-09-16T13:58:00.033Z,52.40
2022-09-16T14:00:58.885Z,51.59
2022-09-16T14:03:54.483Z,52.15
2022-09-16T14:06:52.692Z,53.28
2022-09-16T14:09:52.761Z,52.98
2022-09-16T14:12:52.125Z,53.08
2022-09-16T14:15:43.266Z,51.63
2022-09-16T14:18:33.938Z,49.45
2022-09-16T14:21:24.372Z,48.58
2022-09-16T14:24:18.931Z,47.86
2022-09-16T14:27:21.348Z,47.75
2022-09-16T14:30:17.230Z,46.68
2022-09-16T14:33:05.044Z,46.07
2022-09-16T14:35:54.712Z,45.41
2022-09-16T14:38:46.611Z,45.25
2022-09-16T14:41:37.879Z,45.71
2022-09-16T14:44:33.659Z,46.44
2022-09-16T14:47:39.829Z,46.71
2022-09-16T14:50:38.198Z,48.61
2022-09-16T14:53:35.340Z,51.32
2022-09-16T14:56:24.611Z,52.87
2022-09-16T14:59:14.242Z,54.17
2022-09-16T15:02:08.398Z,53.36
2022-09-16T15:05:01.499Z,55.36
2022-09-16T15:08:12.325Z,59.09
2022-09-16T15:11:00.601Z,64.57
2022-09-16T15:13:47.586Z,67.17
2022-09-16T15:16:41.287Z,67.58
2022-09-16T15:19:36.378Z,68.41
2022-09-16T15:22:25.400Z,68.73
2022-09-16T15:25:21.569Z,67.52
2022-09-16T15:28:17.976Z,67.90
2022-09-16T15:31:05.610Z,67.98
2022-09-16T15:33:54.383Z,66.76
2022-09-16T15:36:43.983Z,66.36
2022-09-16T15:39:33.248Z,66.25
2022-09-16T15:42:22.420Z,64.06
2022-09-16T15:45:18.104Z,64.11
2022-09-16T15:48:12.267Z,63.03
2022-09-16T15:51:03.424Z,63.29
2022-09-16T15:53:53.129Z,62.80
2022-09-16T15:56:51.728Z,61.32
2022-09-16T15:59:45.005Z,59.47
2022-09-16T16:02:40.375Z,60.08
2022-09-16T16:05:29.837Z,60.07
2022-09-16T16:08:42.291Z,57.81
2022-09-16T16:11:31.271Z,56.26
2022-09-16T16:14:18.605Z,56.28
2022-09-16T16:17:13.202Z,56.89
2022-09-16T16:20:02.247Z,56.68
2022-09-16T16:22:50.448Z,56.85
2022-09-16T16:25:37.902Z,56.51
2022-09-16T16:28:26.934Z,57.50
2022-09-16T16:31:16.889Z,58.18
2022-09-16T16:34:04.997Z,57.76
2022-09-16T16:36:52.077Z,58.20
2022-09-16T16:39:39.359Z,57.36
2022-09-16T16:42:28.910Z,58.35
2022-09-16T16:45:17.613Z,58.28
2022-09-16T16:48:05.060Z,59.04
2022-09-16T16:50:57.943Z,59.18
2022-09-16T16:53:49.298Z,58.99
2022-09-16T16:56:36.613Z,60.05
2022-09-16T16:59:24.398Z,59.49
2022-09-16T17:02:15.170Z,61.79
2022-09-16T17:05:02.781Z,62.54
2022-09-16T17:07:50.221Z,63.75
2022-09-16T17:10:37.551Z,67.87
2022-09-16T17:13:25.015Z,70.59
2022-09-16T17:16:15.288Z,70.46
2022-09-16T17:19:04.475Z,71.52
2022-09-16T17:21:53.157Z,72.10
2022-09-16T17:24:40.979Z,72.35
2022-09-16T17:27:29.774Z,71.64
2022-09-16T17:30:17.777Z,71.83
2022-09-16T17:33:05.018Z,69.96
2022-09-16T17:36:04.666Z,69.87
2022-09-16T17:38:57.393Z,70.69
2022-09-16T17:41:46.288Z,71.04
2022-09-16T17:44:33.556Z,69.98
2022-09-16T17:47:20.805Z,70.46
2022-09-16T17:50:08.966Z,70.62
2022-09-16T17:52:57.604Z,69.86
2022-09-16T17:55:53.786Z,69.51
2022-09-16T17:58:53.494Z,68.47
2022-09-16T18:01:45.450Z,68.93
2022-09-16T18:04:35.284Z,68.72
2022-09-16T18:07:25.654Z,67.76
2022-09-16T18:10:16.974Z,68.19
2022-09-16T18:13:04.870Z,67.95
2022-09-16T18:15:52.616Z,67.14
2022-09-16T18:18:41.558Z,67.07
2022-09-16T18:21:31.355Z,66.26
2022-09-16T18:24:19.782Z,66.44
2022-09-16T18:27:08.789Z,66.02
2022-09-16T18:29:56.114Z,65.32
2022-09-16T18:32:43.299Z,65.22
2022-09-16T18:35:31.744Z,65.27
2022-09-16T18:38:18.964Z,64.68
2022-09-16T18:41:08.701Z,66.33
2022-09-16T18:43:59.318Z,66.69
2022-09-16T18:46:47.641Z,68.41
2022-09-16T18:49:38.302Z,69.89
2022-09-16T18:52:26.676Z,69.97
2022-09-16T18:55:14.945Z,70.47
2022-09-16T18:58:02.939Z,69.71
2022-09-16T19:00:51.874Z,68.31
2022-09-16T19:03:39.710Z,69.45
2022-09-16T19:06:29.060Z,69.97
2022-09-16T19:09:19.910Z,70.72
2022-09-16T19:12:08.172Z,70.46
2022-09-16T19:14:56.030Z,71.53
2022-09-16T19:17:45.977Z,72.83
2022-09-16T19:20:33.681Z,73.15
2022-09-16T19:23:21.323Z,74.46
2022-09-16T19:26:08.519Z,78.36
2022-09-16T19:28:56.096Z,78.46
2022-09-16T19:31:45.463Z,81.68
2022-09-16T19:34:34.198Z,84.05
2022-09-16T19:37:21.813Z,84.46
2022-09-16T19:40:09.483Z,84.76
2022-09-16T19:42:57.583Z,85.70
2022-09-16T19:45:44.816Z,86.26
2022-09-16T19:48:33.242Z,86.65
2022-09-16T19:51:23.969Z,87.30
2022-09-16T19:54:11.241Z,89.65
2022-09-16T19:56:59.840Z,89.93
2022-09-16T19:59:47.362Z,88.71
2022-09-16T20:02:34.822Z,90.16
2022-09-16T20:05:21.984Z,90.86
2022-09-16T20:08:10.957Z,90.66
2022-09-16T20:11:03.693Z,91.08
2022-09-16T20:13:53.202Z,91.00
2022-09-16T20:16:41.719Z,90.93
2022-09-16T20:19:29.405Z,90.98
2022-09-16T20:22:16.875Z,91.21
2022-09-16T20:25:22.309Z,93.14
2022-09-16T20:28:10.845Z,93.56
2022-09-16T20:30:58.505Z,93.42
2022-09-16T20:33:46.481Z,93.03
2022-09-16T20:36:38.859Z,93.40
2022-09-16T20:39:26.134Z,94.29
2022-09-16T20:42:16.967Z,94.83
2022-09-16T20:45:04.877Z,93.72
2022-09-16T20:47:52.210Z,94.36
2022-09-16T20:50:40.282Z,94.70
2022-09-16T20:53:27.768Z,94.87
2022-09-16T20:56:17.716Z,95.89
2022-09-16T20:59:07.561Z,95.47
2022-09-16T21:01:55.403Z,95.90
2022-09-16T21:04:42.566Z,96.23
2022-09-16T21:07:30.413Z,96.34
2022-09-16T21:10:18.265Z,96.76
2022-09-16T21:13:06.548Z,96.64
2022-09-16T21:15:59.262Z,96.93
2022-09-16T21:18:47.041Z,96.19
2022-09-16T21:21:34.936Z,96.52
2022-09-16T21:24:22.258Z,96.86
2022-09-16T21:27:10.206Z,96.62
2022-09-16T21:29:58.657Z,97.21
2022-09-16T21:32:47.275Z,97.32
2022-09-16T21:35:34.756Z,97.65
2022-09-16T21:38:23.098Z,97.22
2022-09-16T21:41:12.838Z,97.48
2022-09-16T21:44:00.620Z,97.92
2022-09-16T21:46:49.604Z,96.82
2022-09-16T21:49:38.744Z,97.41
2022-09-16T21:52:25.883Z,97.07
2022-09-16T21:55:13.098Z,97.84
2022-09-16T21:58:00.390Z,97.43
2022-09-16T22:00:48.697Z,96.55
2022-09-16T22:03:36.466Z,97.38
2022-09-16T22:06:26.398Z,95.77
2022-09-16T22:09:14.017Z,96.11
2022-09-16T22:12:01.740Z,96.54
2022-09-16T22:14:49.200Z,96.85
2022-09-16T22:17:36.358Z,97.03
2022-09-16T22:20:24.887Z,97.52
2022-09-16T22:23:13.306Z,97.21
2022-09-16T22:26:04.698Z,97.63
2022-09-16T22:28:52.449Z,97.94
2022-09-16T22:31:42.119Z,98.26
2022-09-16T22:34:29.711Z,98.63
2022-09-16T22:37:17.029Z,98.86
2022-09-16T22:40:07.780Z,99.20
2022-09-16T22:42:56.894Z,98.72
2022-09-16T22:45:43.843Z,99.26
2022-09-16T22:48:32.091Z,99.35
2022-09-16T22:51:20.930Z,99.48
2022-09-16T22:54:09.945Z,99.85
2022-09-16T22:56:58.534Z,100.00
2022-09-16T22:59:46.303Z,99.82
2022-09-16T23:02:33.469Z,100.00
2022-09-16T23:05:20.506Z,100.00
2022-09-16T23:08:08.163Z,100.00
2022-09-16T23:10:55.800Z,100.00
2022-09-16T23:13:48.268Z,100.00
2022-09-16T23:16:38.412Z,100.00
2022-09-16T23:19:25.446Z,100.00
2022-09-16T23:22:12.835Z,100.00
2022-09-16T23:25:00.608Z,100.00
2022-09-16T23:27:48.119Z,100.00
2022-09-16T23:30:36.744Z,100.00
2022-09-16T23:33:23.948Z,100.00
2022-09-16T23:36:13.109Z,100.00
2022-09-16T23:39:01.428Z,100.00
2022-09-16T23:41:51.624Z,100.00
2022-09-16T23:44:39.468Z,100.00
2022-09-16T23:47:28.354Z,100.00
2022-09-16T23:50:15.914Z,100.00
2022-09-16T23:53:03.576Z,100.00
2022-09-16T23:55:52.079Z,100.00
2022-09-16T23:58:39.786Z,100.00
